createdAt,value
2023-02-28T00:04:54.125Z,-0.09
2023-02-28T00:09:46.186Z,0.10
2023-02-28T00:14:38.562Z,0.13
2023-02-28T00:19:30.425Z,-3.53
2023-02-28T00:24:22.218Z,-0.55
2023-02-28T00:29:13.985Z,-0.34
2023-02-28T00:34:05.813Z,0.22
2023-02-28T00:38:57.746Z,-0.58
2023-02-28T00:43:53.496Z,-1.29
2023-02-28T00:48:45.397Z,-0.06
2023-02-28T00:53:37.448Z,-1.27
2023-02-28T00:58:29.887Z,-0.69
2023-02-28T01:03:24.022Z,-0.06
2023-02-28T01:08:16.577Z,-0.98
2023-02-28T01:13:10.582Z,-0.08
2023-02-28T01:18:03.061Z,-1.65
2023-02-28T01:22:59.066Z,-1.49
2023-02-28T01:27:51.084Z,-2.28
2023-02-28T01:32:44.777Z,-1.37
2023-02-28T01:37:37.256Z,-0.68
2023-02-28T01:42:29.280Z,-0.24
2023-02-28T01:47:24.681Z,-1.79
2023-02-28T01:52:19.252Z,-1.75
2023-02-28T01:57:17.975Z,-1.01
2023-02-28T02:02:10.206Z,-0.42
2023-02-28T02:07:02.552Z,-0.78
2023-02-28T02:11:57.149Z,-1.92
2023-02-28T02:16:52.267Z,-0.11
2023-02-28T02:22:06.750Z,-0.19
2023-02-28T02:27:28.307Z,-0.86
2023-02-28T02:32:56.949Z,-0.45
2023-02-28T02:38:12.769Z,-1.19
2023-02-28T02:43:14.738Z,-1.35
2023-02-28T02:48:10.866Z,-0.53
2023-02-28T02:53:05.944Z,-1.73
2023-02-28T02:58:06.565Z,-0.93
2023-02-28T03:02:58.947Z,-0.82
2023-02-28T03:07:50.883Z,-0.51
2023-02-28T03:12:52.829Z,-2.25
2023-02-28T03:17:59.482Z,-1.01
2023-02-28T03:23:18.758Z,-0.59
2023-02-28T03:28:24.520Z,-1.57
2023-02-28T03:33:24.151Z,-0.63
2023-02-28T03:38:23.912Z,-3.17
2023-02-28T03:43:21.109Z,-0.75
2023-02-28T03:48:23.314Z,-1.60
2023-02-28T03:53:17.477Z,-2.07
2023-02-28T03:58:15.945Z,-0.73
2023-02-28T04:03:07.688Z,-2.60
2023-02-28T04:08:08.465Z,-0.89
2023-02-28T04:13:00.183Z,-1.79
2023-02-28T04:17:51.872Z,-2.37
2023-02-28T04:22:43.535Z,-2.92
2023-02-28T04:27:36.008Z,-1.40
2023-02-28T04:32:27.823Z,-1.20
2023-02-28T04:37:19.635Z,-1.24
2023-02-28T04:42:12.716Z,-1.60
2023-02-28T04:47:05.251Z,-2.00
2023-02-28T04:51:56.924Z,-1.87
2023-02-28T04:56:51.749Z,-1.04
2023-02-28T05:01:47.817Z,-2.17
2023-02-28T05:06:39.517Z,-1.40
2023-02-28T05:11:37.141Z,-1.43
2023-02-28T05:16:29.062Z,-2.28
2023-02-28T05:21:26.991Z,-2.11
2023-02-28T05:26:19.213Z,-1.45
2023-02-28T05:31:14.563Z,-1.24
2023-02-28T05:36:07.249Z,-2.60
2023-02-28T05:40:59.155Z,-2.70
2023-02-28T05:45:51.919Z,-1.66
2023-02-28T05:50:45.886Z,-1.21
2023-02-28T05:55:38.680Z,-1.18
2023-02-28T06:00:30.943Z,-1.20
2023-02-28T06:05:25.856Z,-3.85
2023-02-28T06:10:18.436Z,-5.83
2023-02-28T06:15:15.223Z,-3.65
2023-02-28T06:20:08.796Z,-0.94
2023-02-28T06:25:02.506Z,-1.84
2023-02-28T06:29:56.714Z,-3.70
2023-02-28T06:34:50.006Z,-4.22
2023-02-28T06:39:42.984Z,-0.62
2023-02-28T06:44:39.142Z,-2.96
2023-02-28T06:49:34.869Z,-0.83
2023-02-28T06:54:27.530Z,-0.69
2023-02-28T06:59:22.761Z,-0.68
2023-02-28T07:04:15.580Z,-5.25
2023-02-28T07:09:08.068Z,-3.98
2023-02-28T07:14:00.443Z,-6.07
2023-02-28T07:18:56.282Z,-5.58
2023-02-28T07:23:48.917Z,-2.89
2023-02-28T07:28:43.493Z,-1.15
2023-02-28T07:33:35.644Z,3.49
2023-02-28T07:38:27.465Z,2.88
2023-02-28T07:43:19.373Z,5.02
2023-02-28T07:48:11.138Z,5.70
2023-02-28T07:53:03.580Z,7.15
2023-02-28T07:57:55.583Z,5.81
2023-02-28T08:02:47.384Z,7.32
2023-02-28T08:07:39.099Z,6.94
2023-02-28T08:12:30.731Z,6.24
2023-02-28T08:17:22.477Z,5.12
2023-02-28T08:22:14.730Z,8.21
2023-02-28T08:27:06.511Z,8.37
2023-02-28T08:32:01.354Z,8.83
2023-02-28T08:36:54.100Z,8.50
2023-02-28T08:41:47.966Z,7.22
2023-02-28T08:46:41.133Z,6.98
2023-02-28T08:51:33.363Z,8.10
2023-02-28T08:56:25.342Z,6.98
2023-02-28T09:01:28.450Z,7.21
2023-02-28T09:06:22.194Z,7.52
2023-02-28T09:11:14.439Z,7.69
2023-02-28T09:16:09.005Z,7.20
2023-02-28T09:21:03.561Z,6.02
2023-02-28T09:25:55.766Z,5.42
2023-02-28T09:30:50.069Z,6.65
2023-02-28T09:35:42.268Z,6.37
2023-02-28T09:40:39.048Z,7.06
2023-02-28T09:45:41.742Z,4.75
2023-02-28T09:50:42.852Z,1.31
2023-02-28T09:55:46.472Z,4.24
2023-02-28T10:00:42.014Z,2.31
2023-02-28T10:05:49.377Z,4.17
2023-02-28T10:10:44.359Z,3.70
2023-02-28T10:15:37.200Z,4.73
2023-02-28T10:20:32.327Z,4.92
2023-02-28T10:25:27.193Z,3.64
2023-02-28T10:30:18.944Z,4.24
2023-02-28T10:35:10.811Z,4.40
2023-02-28T10:40:02.511Z,3.44
2023-02-28T10:45:16.411Z,0.95
2023-02-28T10:50:28.854Z,2.51
2023-02-28T10:55:26.507Z,4.06
2023-02-28T11:00:22.612Z,3.52
2023-02-28T11:05:36.359Z,3.62
2023-02-28T11:10:34.811Z,4.02
2023-02-28T11:15:32.292Z,3.54
2023-02-28T11:20:28.481Z,4.51
2023-02-28T11:25:28.238Z,2.46
2023-02-28T11:30:31.283Z,5.06
2023-02-28T11:35:31.632Z,4.85
2023-02-28T11:40:32.472Z,4.70
2023-02-28T11:45:48.311Z,5.09
2023-02-28T11:50:52.342Z,5.41
2023-02-28T11:55:50.199Z,5.42
2023-02-28T12:01:04.049Z,5.20
2023-02-28T12:06:27.177Z,4.48
2023-02-28T12:11:52.101Z,5.68
2023-02-28T12:17:11.898Z,5.78
2023-02-28T12:22:18.567Z,5.77
2023-02-28T12:27:17.782Z,5.30
2023-02-28T12:32:33.324Z,5.69
2023-02-28T12:37:47.180Z,5.69
2023-02-28T12:42:56.486Z,5.14
2023-02-28T12:47:56.510Z,4.62
2023-02-28T12:52:54.288Z,5.70
2023-02-28T12:58:11.035Z,5.81
2023-02-28T13:03:31.415Z,5.90
2023-02-28T13:08:52.768Z,5.94
2023-02-28T13:13:46.324Z,5.91
2023-02-28T13:18:42.974Z,5.29
2023-02-28T13:23:53.382Z,6.15
2023-02-28T13:29:21.665Z,5.92
2023-02-28T13:34:15.940Z,6.22
2023-02-28T13:39:36.360Z,5.90
2023-02-28T13:44:28.163Z,4.84
2023-02-28T13:49:32.940Z,5.25
2023-02-28T13:54:36.827Z,5.41
2023-02-28T13:59:52.279Z,6.21
2023-02-28T14:04:56.151Z,6.33
2023-02-28T14:10:09.600Z,6.28
2023-02-28T14:15:01.509Z,4.65
2023-02-28T14:19:53.906Z,3.74
2023-02-28T14:25:18.688Z,5.16
2023-02-28T14:30:52.153Z,6.11
2023-02-28T14:36:12.286Z,5.91
2023-02-28T14:41:13.602Z,5.07
2023-02-28T14:46:07.533Z,3.76
2023-02-28T14:51:01.371Z,5.76
2023-02-28T14:55:53.814Z,5.42
2023-02-28T15:00:52.036Z,5.20
2023-02-28T15:05:53.706Z,6.06
2023-02-28T15:10:52.613Z,5.00
2023-02-28T15:16:01.888Z,5.54
2023-02-28T15:20:55.477Z,4.17
2023-02-28T15:25:47.697Z,6.03
2023-02-28T15:30:39.724Z,4.54
2023-02-28T15:35:33.573Z,5.85
2023-02-28T15:40:32.405Z,5.61
2023-02-28T15:45:41.245Z,5.71
2023-02-28T15:50:36.105Z,5.63
2023-02-28T15:55:29.480Z,5.62
2023-02-28T16:00:25.538Z,5.58
2023-02-28T16:05:32.625Z,5.58
2023-02-28T16:10:26.942Z,4.53
2023-02-28T16:15:34.103Z,5.36
2023-02-28T16:20:31.522Z,4.21
2023-02-28T16:25:44.631Z,4.68
2023-02-28T16:30:36.471Z,2.93
2023-02-28T16:35:28.285Z,3.52
2023-02-28T16:40:24.011Z,4.83
2023-02-28T16:45:25.296Z,4.27
2023-02-28T16:50:21.257Z,4.66
2023-02-28T16:55:13.140Z,4.48
2023-02-28T17:00:07.279Z,3.94
2023-02-28T17:04:58.927Z,3.99
2023-02-28T17:09:50.551Z,3.85
2023-02-28T17:14:42.837Z,3.52
2023-02-28T17:19:37.051Z,3.53
2023-02-28T17:24:31.168Z,2.96
2023-02-28T17:29:23.774Z,3.88
2023-02-28T17:34:22.483Z,3.08
2023-02-28T17:39:15.712Z,3.66
2023-02-28T17:44:07.589Z,2.16
2023-02-28T17:48:59.288Z,2.79
2023-02-28T17:53:52.233Z,2.35
2023-02-28T17:58:44.041Z,2.46
2023-02-28T18:03:36.495Z,3.47
2023-02-28T18:08:28.699Z,2.74
2023-02-28T18:13:20.479Z,-0.04
2023-02-28T18:18:12.121Z,3.10
2023-02-28T18:23:04.386Z,2.64
2023-02-28T18:27:59.058Z,1.69
2023-02-28T18:32:50.718Z,2.94
2023-02-28T18:37:42.408Z,1.79
2023-02-28T18:42:34.156Z,0.56
2023-02-28T18:47:26.546Z,1.33
2023-02-28T18:52:18.422Z,1.90
2023-02-28T18:57:10.857Z,2.38
2023-02-28T19:02:02.610Z,-1.21
2023-02-28T19:06:54.304Z,1.01
2023-02-28T19:11:45.930Z,1.57
2023-02-28T19:16:37.884Z,2.20
2023-02-28T19:21:29.949Z,1.25
2023-02-28T19:26:23.821Z,1.74
2023-02-28T19:31:24.513Z,1.90
2023-02-28T19:36:16.546Z,-0.11
2023-02-28T19:41:10.744Z,1.15
2023-02-28T19:46:03.206Z,1.90
2023-02-28T19:51:02.717Z,1.86
2023-02-28T19:55:54.773Z,0.30
2023-02-28T20:00:46.711Z,-1.46
2023-02-28T20:05:38.556Z,1.25
2023-02-28T20:10:30.832Z,0.95
2023-02-28T20:15:23.321Z,0.49
2023-02-28T20:20:15.137Z,0.87
2023-02-28T20:25:08.148Z,0.39
2023-02-28T20:29:59.837Z,0.92
2023-02-28T20:34:52.675Z,-0.77
2023-02-28T20:39:46.166Z,0.22
2023-02-28T20:44:38.457Z,0.19
2023-02-28T20:49:30.635Z,-1.39
2023-02-28T20:54:22.505Z,0.05
2023-02-28T20:59:14.320Z,0.69
2023-02-28T21:04:07.387Z,-0.51
2023-02-28T21:08:59.474Z,1.13
2023-02-28T21:13:51.953Z,1.12
2023-02-28T21:18:44.201Z,0.71
2023-02-28T21:23:35.990Z,-0.01
2023-02-28T21:28:27.768Z,0.98
2023-02-28T21:33:19.635Z,0.39
2023-02-28T21:38:11.353Z,-0.55
2023-02-28T21:43:03.057Z,-0.22
2023-02-28T21:47:55.861Z,0.91
2023-02-28T21:52:47.846Z,0.98
2023-02-28T21:57:39.630Z,0.91
2023-02-28T22:02:31.530Z,0.26
2023-02-28T22:07:23.756Z,0.06
2023-02-28T22:12:15.513Z,-0.06
2023-02-28T22:17:08.042Z,0.21
2023-02-28T22:21:59.845Z,0.72
2023-02-28T22:26:52.388Z,-0.99
2023-02-28T22:31:44.291Z,-0.24
2023-02-28T22:36:36.619Z,-0.89
2023-02-28T22:41:29.336Z,-0.91
2023-02-28T22:46:22.794Z,0.51
2023-02-28T22:51:18.084Z,0.57
2023-02-28T22:56:11.178Z,-0.03
2023-02-28T23:01:12.261Z,0.53
2023-02-28T23:06:16.046Z,0.45
2023-02-28T23:11:07.952Z,0.51
2023-02-28T23:16:00.856Z,0.16
2023-02-28T23:20:52.661Z,-1.42
2023-02-28T23:25:44.368Z,-0.04
2023-02-28T23:30:38.569Z,-3.05
2023-02-28T23:35:32.123Z,-1.86
2023-02-28T23:40:24.153Z,-0.69
2023-02-28T23:45:17.812Z,-2.86
2023-02-28T23:50:10.418Z,-0.07
2023-02-28T23:55:02.464Z,-0.09
2023-02-28T23:59:54.806Z,-0.55
